createdAt,value
2019-01-23T00:00:12.570Z,74.47
2019-01-23T00:01:12.539Z,74.43
2019-01-23T00:02:12.531Z,74.37
2019-01-23T00:03:12.548Z,74.15
2019-01-23T00:04:12.517Z,74.15
2019-01-23T00:05:12.517Z,74.57
2019-01-23T00:06:12.489Z,74.57
2019-01-23T00:07:12.482Z,74.79
2019-01-23T00:08:12.463Z,74.47
2019-01-23T00:09:12.457Z,74.99
2019-01-23T00:10:12.465Z,74.89
2019-01-23T00:11:12.473Z,74.79
2019-01-23T00:12:12.425Z,75.21
2019-01-23T00:13:12.411Z,74.99
2019-01-23T00:14:12.403Z,74.89
2019-01-23T00:15:12.423Z,74.89
2019-01-23T00:16:12.377Z,74.99
2019-01-23T00:17:12.372Z,75.10
2019-01-23T00:18:12.362Z,74.89
2019-01-23T00:19:12.344Z,75.31
2019-01-23T00:20:12.351Z,75.10
2019-01-23T00:21:12.347Z,75.63
2019-01-23T00:22:12.316Z,75.31
2019-01-23T00:23:12.298Z,75.10
2019-01-23T00:24:12.293Z,74.68
2019-01-23T00:25:12.307Z,75.63
2019-01-23T00:26:12.271Z,75.42
2019-01-23T00:27:12.256Z,75.10
2019-01-23T00:28:12.243Z,75.42
2019-01-23T00:29:12.236Z,75.10
2019-01-23T00:30:12.282Z,75.84
2019-01-23T00:31:12.241Z,75.63
2019-01-23T00:32:12.201Z,75.52
2019-01-23T00:33:12.200Z,74.99
2019-01-23T00:34:12.180Z,75.21
2019-01-23T00:35:12.167Z,74.79
2019-01-23T00:36:12.176Z,74.85
2019-01-23T00:37:12.160Z,74.89
2019-01-23T00:38:12.134Z,74.99
2019-01-23T00:39:12.122Z,74.79
2019-01-23T00:40:12.108Z,75.10
2019-01-23T00:41:12.168Z,75.10
2019-01-23T00:42:12.096Z,74.89
2019-01-23T00:43:12.076Z,74.89
2019-01-23T00:44:12.067Z,75.21
2019-01-23T00:45:12.052Z,74.85
2019-01-23T00:46:12.069Z,74.89
2019-01-23T00:47:12.040Z,74.79
2019-01-23T00:48:12.019Z,75.10
2019-01-23T00:49:12.011Z,74.75
2019-01-23T00:50:12.006Z,75.10
2019-01-23T00:51:12.013Z,75.21
2019-01-23T00:52:12.025Z,74.99
2019-01-23T00:53:11.969Z,74.57
2019-01-23T00:54:11.967Z,75.07
2019-01-23T00:55:11.948Z,74.79
2019-01-23T00:56:11.960Z,74.89
2019-01-23T00:57:11.926Z,74.33
2019-01-23T00:58:11.924Z,74.47
2019-01-23T00:59:11.906Z,74.57
2019-01-23T01:00:11.897Z,74.89
2019-01-23T01:01:11.904Z,74.79
2019-01-23T01:02:11.875Z,74.68
2019-01-23T01:03:11.870Z,74.89
2019-01-23T01:04:11.874Z,75.10
2019-01-23T01:05:11.837Z,75.10
2019-01-23T01:06:11.857Z,74.99
2019-01-23T01:07:11.814Z,74.89
2019-01-23T01:08:11.808Z,74.68
2019-01-23T01:09:11.817Z,74.79
2019-01-23T01:10:11.782Z,74.68
2019-01-23T01:11:11.801Z,74.89
2019-01-23T01:12:11.773Z,74.89
2019-01-23T01:13:11.759Z,74.96
2019-01-23T01:14:11.739Z,74.89
2019-01-23T01:15:13.549Z,74.89
2019-01-23T01:16:11.752Z,74.68
2019-01-23T01:17:11.702Z,74.68
2019-01-23T01:18:11.698Z,74.68
2019-01-23T01:19:11.689Z,74.79
2019-01-23T01:20:11.683Z,74.65
2019-01-23T01:21:11.722Z,74.79
2019-01-23T01:22:11.683Z,74.68
2019-01-23T01:23:11.645Z,74.79
2019-01-23T01:24:11.636Z,75.10
2019-01-23T01:25:11.626Z,74.68
2019-01-23T01:26:11.599Z,74.68
2019-01-23T01:27:11.619Z,74.79
2019-01-23T01:28:11.583Z,75.10
2019-01-23T01:29:11.571Z,74.79
2019-01-23T01:30:11.562Z,74.47
2019-01-23T01:31:11.546Z,74.89
2019-01-23T01:32:11.555Z,75.21
2019-01-23T01:33:11.533Z,74.99
2019-01-23T01:34:11.529Z,75.10
2019-01-23T01:35:11.507Z,75.73
2019-01-23T01:36:11.494Z,75.63
2019-01-23T01:37:11.500Z,75.52
2019-01-23T01:38:11.468Z,75.63
2019-01-23T01:39:11.459Z,74.89
2019-01-23T01:40:12.549Z,74.79
2019-01-23T01:41:11.441Z,74.89
2019-01-23T01:42:11.448Z,74.79
2019-01-23T01:43:11.418Z,74.99
2019-01-23T01:44:11.400Z,74.89
2019-01-23T01:45:11.400Z,74.89
2019-01-23T01:46:11.381Z,74.99
2019-01-23T01:47:11.392Z,74.99
2019-01-23T01:48:11.362Z,74.89
2019-01-23T01:49:11.353Z,74.89
2019-01-23T01:50:11.340Z,74.89
2019-01-23T01:51:11.325Z,74.79
2019-01-23T01:52:11.347Z,74.79
2019-01-23T01:53:11.306Z,75.10
2019-01-23T01:54:11.298Z,75.10
2019-01-23T01:55:11.286Z,74.68
2019-01-23T01:56:11.271Z,74.99
2019-01-23T01:57:11.312Z,75.21
2019-01-23T01:58:11.272Z,74.57
2019-01-23T01:59:11.246Z,75.21
2019-01-23T02:00:11.233Z,74.68
2019-01-23T02:01:11.222Z,74.89
2019-01-23T02:02:11.209Z,74.79
2019-01-23T02:03:15.375Z,75.10
2019-01-23T02:04:11.181Z,74.99
2019-01-23T02:05:11.228Z,74.68
2019-01-23T02:06:11.162Z,74.47
2019-01-23T02:07:11.155Z,74.68
2019-01-23T02:08:11.184Z,74.57
2019-01-23T02:09:11.129Z,74.37
2019-01-23T02:10:11.151Z,74.68
2019-01-23T02:11:11.106Z,74.79
2019-01-23T02:12:11.096Z,74.89
2019-01-23T02:13:11.104Z,74.89
2019-01-23T02:14:11.085Z,74.89
2019-01-23T02:15:11.064Z,74.79
2019-01-23T02:16:11.060Z,74.57
2019-01-23T02:17:11.074Z,74.79
2019-01-23T02:18:11.061Z,74.89
2019-01-23T02:19:11.025Z,74.89
2019-01-23T02:20:11.010Z,74.68
2019-01-23T02:21:11.013Z,74.89
2019-01-23T02:22:10.986Z,74.89
2019-01-23T02:23:11.046Z,74.68
2019-01-23T02:24:10.967Z,74.89
2019-01-23T02:25:10.955Z,74.89
2019-01-23T02:26:10.944Z,74.68
2019-01-23T02:27:10.984Z,74.68
2019-01-23T02:28:10.943Z,74.68
2019-01-23T02:29:10.911Z,74.89
2019-01-23T02:30:10.900Z,74.79
2019-01-23T02:31:10.894Z,75.10
2019-01-23T02:32:10.896Z,74.79
2019-01-23T02:33:10.898Z,74.89
2019-01-23T02:34:10.854Z,74.79
2019-01-23T02:35:10.845Z,74.89
2019-01-23T02:36:10.839Z,74.68
2019-01-23T02:37:10.822Z,74.47
2019-01-23T02:38:10.813Z,74.57
2019-01-23T02:39:10.823Z,74.47
2019-01-23T02:40:10.790Z,74.37
2019-01-23T02:41:10.781Z,74.79
2019-01-23T02:42:10.775Z,74.99
2019-01-23T02:43:10.756Z,74.89
2019-01-23T02:44:10.762Z,74.79
2019-01-23T02:45:10.739Z,74.79
2019-01-23T02:46:10.728Z,75.10
2019-01-23T02:47:10.712Z,74.79
2019-01-23T02:48:10.698Z,74.89
2019-01-23T02:49:10.717Z,74.57
2019-01-23T02:50:10.679Z,74.47
2019-01-23T02:51:10.661Z,74.57
2019-01-23T02:52:10.671Z,74.26
2019-01-23T02:53:10.642Z,74.57
2019-01-23T02:54:10.654Z,74.15
2019-01-23T02:55:10.625Z,74.37
2019-01-23T02:56:10.616Z,74.57
2019-01-23T02:57:10.602Z,74.68
2019-01-23T02:58:10.590Z,74.68
2019-01-23T02:59:17.176Z,74.47
2019-01-23T03:00:11.606Z,74.79
2019-01-23T03:01:10.555Z,74.82
2019-01-23T03:02:10.545Z,74.37
2019-01-23T03:03:10.532Z,74.79
2019-01-23T03:04:10.542Z,74.57
2019-01-23T03:05:10.513Z,75.10
2019-01-23T03:06:10.514Z,74.89
2019-01-23T03:07:10.491Z,74.68
2019-01-23T03:08:10.481Z,74.89
2019-01-23T03:09:10.509Z,74.79
2019-01-23T03:10:10.458Z,74.47
2019-01-23T03:11:10.451Z,74.57
2019-01-23T03:12:10.437Z,74.57
2019-01-23T03:13:10.441Z,74.37
2019-01-23T03:14:10.444Z,74.47
2019-01-23T03:15:10.402Z,74.71
2019-01-23T03:16:10.403Z,74.26
2019-01-23T03:17:10.384Z,74.37
2019-01-23T03:18:10.401Z,74.37
2019-01-23T03:19:10.397Z,74.37
2019-01-23T03:20:10.367Z,74.68
2019-01-23T03:21:10.336Z,74.37
2019-01-23T03:22:10.341Z,74.68
2019-01-23T03:23:10.326Z,74.79
2019-01-23T03:24:10.322Z,74.50
2019-01-23T03:25:10.296Z,74.61
2019-01-23T03:26:10.324Z,74.47
2019-01-23T03:27:10.271Z,74.71
2019-01-23T03:28:10.258Z,74.71
2019-01-23T03:29:10.279Z,74.61
2019-01-23T03:30:10.263Z,74.92
2019-01-23T03:31:10.229Z,74.79
2019-01-23T03:32:10.251Z,74.40
2019-01-23T03:33:10.213Z,74.61
2019-01-23T03:34:10.221Z,74.40
2019-01-23T03:35:10.183Z,74.50
2019-01-23T03:36:10.177Z,74.50
2019-01-23T03:37:10.175Z,74.61
2019-01-23T03:38:10.149Z,74.61
2019-01-23T03:39:10.170Z,74.71
2019-01-23T03:40:10.132Z,74.40
2019-01-23T03:41:10.118Z,74.40
2019-01-23T03:42:10.108Z,74.61
2019-01-23T03:43:10.095Z,74.61
2019-01-23T03:44:10.086Z,74.50
2019-01-23T03:45:10.093Z,74.43
2019-01-23T03:46:10.088Z,74.92
2019-01-23T03:47:10.070Z,74.82
2019-01-23T03:48:10.040Z,74.82
2019-01-23T03:49:10.036Z,75.66
2019-01-23T03:50:10.037Z,75.66
2019-01-23T03:51:10.007Z,75.06
2019-01-23T03:52:09.998Z,74.64
2019-01-23T03:53:09.990Z,74.82
2019-01-23T03:54:09.975Z,74.50
2019-01-23T03:55:09.984Z,74.19
2019-01-23T03:56:09.950Z,74.32
2019-01-23T03:57:09.944Z,74.50
2019-01-23T03:58:09.931Z,74.43
2019-01-23T03:59:09.923Z,74.50
2019-01-23T04:00:09.925Z,74.29
2019-01-23T04:01:09.899Z,74.43
2019-01-23T04:02:09.909Z,74.74
2019-01-23T04:03:09.878Z,74.54
2019-01-23T04:04:09.862Z,74.22
2019-01-23T04:05:09.865Z,74.01
2019-01-23T04:06:09.846Z,73.87
2019-01-23T04:07:09.839Z,73.27
2019-01-23T04:08:09.836Z,73.03
2019-01-23T04:09:09.804Z,72.96
2019-01-23T04:10:09.844Z,72.92
2019-01-23T04:11:09.858Z,72.81
2019-01-23T04:12:09.773Z,72.53
2019-01-23T04:13:09.785Z,72.64
2019-01-23T04:14:09.778Z,72.74
2019-01-23T04:15:09.797Z,72.74
2019-01-23T04:16:09.733Z,73.06
2019-01-23T04:17:09.726Z,73.38
2019-01-23T04:18:09.708Z,73.38
2019-01-23T04:19:09.700Z,73.69
2019-01-23T04:20:09.968Z,73.06
2019-01-23T04:21:09.678Z,72.96
2019-01-23T04:22:09.664Z,72.74
2019-01-23T04:23:09.657Z,72.64
2019-01-23T04:24:09.645Z,72.74
2019-01-23T04:25:09.676Z,72.42
2019-01-23T04:26:09.996Z,72.42
2019-01-23T04:27:09.613Z,72.32
2019-01-23T04:28:09.597Z,72.67
2019-01-23T04:29:09.586Z,72.74
2019-01-23T04:30:09.577Z,72.67
2019-01-23T04:31:09.589Z,72.56
2019-01-23T04:32:09.560Z,72.78
2019-01-23T04:33:09.542Z,72.67
2019-01-23T04:34:09.547Z,72.67
2019-01-23T04:35:09.527Z,72.99
2019-01-23T04:36:09.526Z,72.99
2019-01-23T04:37:09.497Z,73.09
2019-01-23T04:38:09.492Z,73.20
2019-01-23T04:39:09.490Z,73.09
2019-01-23T04:40:09.465Z,72.67
2019-01-23T04:41:09.478Z,72.67
2019-01-23T04:42:09.449Z,72.88
2019-01-23T04:43:09.434Z,72.56
2019-01-23T04:44:09.422Z,72.78
2019-01-23T04:45:09.418Z,73.20
2019-01-23T04:46:09.433Z,73.20
2019-01-23T04:47:09.392Z,72.78
2019-01-23T04:48:09.388Z,72.88
2019-01-23T04:49:09.369Z,72.99
2019-01-23T04:50:09.360Z,75.94
2019-01-23T04:51:09.370Z,77.73
2019-01-23T04:52:09.334Z,77.80
2019-01-23T04:53:09.325Z,78.33
2019-01-23T04:54:09.323Z,76.86
2019-01-23T04:55:09.302Z,75.48
2019-01-23T04:56:09.306Z,75.59
2019-01-23T04:57:09.283Z,74.50
2019-01-23T04:58:09.269Z,73.97
2019-01-23T04:59:09.258Z,72.61
2019-01-23T05:00:09.251Z,71.66
2019-01-23T05:01:09.255Z,70.92
2019-01-23T05:02:09.239Z,71.03
2019-01-23T05:03:09.224Z,70.81
2019-01-23T05:04:09.205Z,70.84
2019-01-23T05:05:09.191Z,71.06
2019-01-23T05:06:09.180Z,71.23
2019-01-23T05:07:09.202Z,71.06
2019-01-23T05:08:09.158Z,71.48
2019-01-23T05:09:09.188Z,71.26
2019-01-23T05:10:09.200Z,71.48
2019-01-23T05:11:09.125Z,71.58
2019-01-23T05:12:09.131Z,71.58
2019-01-23T05:13:09.108Z,71.26
2019-01-23T05:14:09.090Z,71.16
2019-01-23T05:15:09.121Z,71.06
2019-01-23T05:16:09.069Z,71.16
2019-01-23T05:17:09.093Z,70.84
2019-01-23T05:18:09.050Z,71.26
2019-01-23T05:19:09.031Z,71.83
2019-01-23T05:20:09.019Z,71.06
2019-01-23T05:21:09.022Z,71.93
2019-01-23T05:22:09.039Z,71.93
2019-01-23T05:23:08.994Z,71.30
2019-01-23T05:24:08.985Z,71.51
2019-01-23T05:25:08.976Z,71.93
2019-01-23T05:26:08.965Z,71.72
2019-01-23T05:27:08.975Z,71.44
2019-01-23T05:28:08.934Z,72.14
2019-01-23T05:29:08.934Z,72.39
2019-01-23T05:30:08.931Z,72.39
2019-01-23T05:31:08.920Z,72.35
2019-01-23T05:32:08.915Z,72.46
2019-01-23T05:33:08.901Z,72.46
2019-01-23T05:34:08.872Z,72.39
2019-01-23T05:35:08.855Z,72.39
2019-01-23T05:36:08.849Z,72.25
2019-01-23T05:37:08.863Z,72.35
2019-01-23T05:38:08.843Z,72.14
2019-01-23T05:39:08.821Z,71.51
2019-01-23T05:40:08.804Z,71.51
2019-01-23T05:41:08.796Z,71.30
2019-01-23T05:42:08.787Z,71.44
2019-01-23T05:43:08.790Z,71.54
2019-01-23T05:44:08.771Z,71.75
2019-01-23T05:45:08.748Z,72.04
2019-01-23T05:46:08.735Z,71.44
2019-01-23T05:47:08.755Z,72.28
2019-01-23T05:48:08.736Z,72.07
2019-01-23T05:49:08.710Z,71.97
2019-01-23T05:50:08.704Z,71.97
2019-01-23T05:51:08.681Z,71.97
2019-01-23T05:52:08.696Z,72.39
2019-01-23T05:53:08.696Z,72.49
2019-01-23T05:54:08.653Z,71.97
2019-01-23T05:55:08.647Z,72.28
2019-01-23T05:56:08.631Z,72.49
2019-01-23T05:57:08.622Z,72.39
2019-01-23T05:58:10.105Z,72.71
2019-01-23T05:59:08.611Z,72.60
2019-01-23T06:00:08.584Z,72.81
2019-01-23T06:01:08.575Z,72.60
2019-01-23T06:02:08.560Z,72.60
2019-01-23T06:03:08.571Z,72.25
2019-01-23T06:04:08.548Z,72.28
2019-01-23T06:05:08.540Z,71.41
2019-01-23T06:06:08.526Z,71.72
2019-01-23T06:07:08.509Z,71.51
2019-01-23T06:08:08.522Z,71.86
2019-01-23T06:09:08.483Z,71.44
2019-01-23T06:10:08.470Z,72.28
2019-01-23T06:11:08.481Z,72.17
2019-01-23T06:12:08.450Z,71.97
2019-01-23T06:13:08.469Z,72.07
2019-01-23T06:14:08.430Z,71.97
2019-01-23T06:15:08.436Z,72.07
2019-01-23T06:16:08.415Z,72.28
2019-01-23T06:17:08.399Z,72.17
2019-01-23T06:18:08.408Z,72.17
2019-01-23T06:19:08.383Z,72.07
2019-01-23T06:20:08.366Z,72.07
2019-01-23T06:21:08.371Z,72.28
2019-01-23T06:22:08.348Z,72.71
2019-01-23T06:23:08.356Z,72.81
2019-01-23T06:24:08.322Z,72.60
2019-01-23T06:25:08.310Z,72.60
2019-01-23T06:26:08.301Z,72.71
2019-01-23T06:27:08.289Z,72.39
2019-01-23T06:28:08.317Z,72.39
2019-01-23T06:29:08.267Z,72.81
2019-01-23T06:30:10.382Z,73.02
2019-01-23T06:31:08.251Z,72.84
2019-01-23T06:32:08.234Z,72.95
2019-01-23T06:33:08.219Z,72.91
2019-01-23T06:34:08.231Z,72.95
2019-01-23T06:35:08.199Z,72.91
2019-01-23T06:36:08.191Z,72.60
2019-01-23T06:37:08.192Z,72.91
2019-01-23T06:38:08.184Z,73.02
2019-01-23T06:39:08.195Z,72.81
2019-01-23T06:40:08.138Z,73.02
2019-01-23T06:41:08.128Z,73.02
2019-01-23T06:42:08.132Z,72.81
2019-01-23T06:43:08.109Z,72.91
2019-01-23T06:44:08.118Z,72.81
2019-01-23T06:45:08.089Z,72.81
2019-01-23T06:46:08.112Z,73.13
2019-01-23T06:47:08.068Z,73.13
2019-01-23T06:48:08.061Z,73.02
2019-01-23T06:49:08.080Z,73.33
2019-01-23T06:50:08.040Z,73.23
2019-01-23T06:51:08.043Z,73.23
2019-01-23T06:52:08.047Z,73.33
2019-01-23T06:53:13.794Z,73.23
2019-01-23T06:54:09.051Z,73.13
2019-01-23T06:55:08.320Z,73.33
2019-01-23T06:56:07.970Z,73.55
2019-01-23T06:57:08.011Z,73.33
2019-01-23T06:58:07.946Z,73.55
2019-01-23T06:59:08.020Z,73.65
2019-01-23T07:00:07.934Z,73.62
2019-01-23T07:01:07.915Z,73.86
2019-01-23T07:02:07.907Z,73.76
2019-01-23T07:03:07.949Z,73.76
2019-01-23T07:04:07.877Z,73.62
2019-01-23T07:05:07.928Z,73.52
2019-01-23T07:06:07.861Z,73.86
2019-01-23T07:07:07.889Z,73.97
2019-01-23T07:08:07.848Z,73.83
2019-01-23T07:09:07.825Z,73.94
2019-01-23T07:10:07.828Z,73.83
2019-01-23T07:11:07.809Z,73.41
2019-01-23T07:12:07.795Z,73.41
2019-01-23T07:13:07.783Z,73.41
2019-01-23T07:14:07.772Z,73.41
2019-01-23T07:15:07.789Z,74.04
2019-01-23T07:16:07.759Z,77.52
2019-01-23T07:17:07.734Z,81.18
2019-01-23T07:18:07.723Z,82.76
2019-01-23T07:19:07.707Z,80.40
2019-01-23T07:20:07.725Z,80.82
2019-01-23T07:21:07.687Z,80.72
2019-01-23T07:22:07.680Z,79.84
2019-01-23T07:23:07.733Z,76.68
2019-01-23T07:24:07.663Z,73.94
2019-01-23T07:25:07.674Z,72.99
2019-01-23T07:26:07.641Z,72.78
2019-01-23T07:27:07.623Z,72.57
2019-01-23T07:28:07.614Z,72.25
2019-01-23T07:29:07.672Z,72.36
2019-01-23T07:30:07.628Z,72.78
2019-01-23T07:31:07.619Z,73.13
2019-01-23T07:32:07.571Z,76.15
2019-01-23T07:33:07.559Z,76.36
2019-01-23T07:34:07.549Z,76.89
2019-01-23T07:35:07.537Z,76.57
2019-01-23T07:36:07.548Z,74.68
2019-01-23T07:37:07.516Z,74.37
2019-01-23T07:38:07.562Z,74.08
2019-01-23T07:39:07.516Z,73.55
2019-01-23T07:40:07.514Z,73.24
2019-01-23T07:41:07.474Z,73.31
2019-01-23T07:42:07.542Z,73.24
2019-01-23T07:43:07.440Z,73.03
2019-01-23T07:44:07.437Z,73.34
2019-01-23T07:45:07.429Z,73.03
2019-01-23T07:46:07.432Z,73.03
2019-01-23T07:47:07.420Z,73.24
2019-01-23T07:48:07.402Z,73.24
2019-01-23T07:49:07.406Z,73.45
2019-01-23T07:50:07.386Z,73.55
2019-01-23T07:51:07.380Z,73.24
2019-01-23T07:52:07.350Z,73.45
2019-01-23T07:53:07.332Z,73.24
2019-01-23T07:54:07.336Z,73.13
2019-01-23T07:55:07.315Z,72.81
2019-01-23T07:56:07.327Z,73.13
2019-01-23T07:57:07.296Z,73.13
2019-01-23T07:58:07.287Z,73.34
2019-01-23T07:59:07.267Z,73.34
2019-01-23T08:00:07.258Z,73.24
2019-01-23T08:01:07.258Z,73.24
2019-01-23T08:02:07.242Z,73.03
2019-01-23T08:03:07.278Z,73.03
2019-01-23T08:04:07.216Z,73.13
2019-01-23T08:05:07.202Z,73.24
2019-01-23T08:06:07.212Z,73.03
2019-01-23T08:07:07.179Z,72.92
2019-01-23T08:08:07.168Z,73.13
2019-01-23T08:09:07.160Z,73.13
2019-01-23T08:10:07.147Z,73.66
2019-01-23T08:11:07.162Z,73.66
2019-01-23T08:12:10.691Z,73.87
2019-01-23T08:13:07.141Z,73.76
2019-01-23T08:14:07.106Z,73.66
2019-01-23T08:15:07.102Z,73.55
2019-01-23T08:16:07.108Z,73.55
2019-01-23T08:17:07.076Z,73.24
2019-01-23T08:18:07.064Z,73.21
2019-01-23T08:19:07.072Z,73.13
2019-01-23T08:20:07.036Z,73.24
2019-01-23T08:21:07.053Z,73.31
2019-01-23T08:22:07.016Z,73.52
2019-01-23T08:23:07.018Z,73.41
2019-01-23T08:24:06.992Z,73.31
2019-01-23T08:25:07.567Z,73.21
2019-01-23T08:26:06.994Z,73.21
2019-01-23T08:27:07.246Z,73.31
2019-01-23T08:28:06.949Z,72.78
2019-01-23T08:29:06.946Z,72.67
2019-01-23T08:30:06.926Z,72.89
2019-01-23T08:31:07.136Z,72.78
2019-01-23T08:32:06.899Z,72.78
2019-01-23T08:33:06.911Z,72.78
2019-01-23T08:34:06.943Z,72.89
2019-01-23T08:35:06.875Z,72.78
2019-01-23T08:36:06.864Z,72.99
2019-01-23T08:37:06.875Z,72.78
2019-01-23T08:38:06.854Z,72.67
2019-01-23T08:39:06.828Z,72.67
2019-01-23T08:40:06.815Z,72.89
2019-01-23T08:41:06.808Z,72.99
2019-01-23T08:42:06.840Z,72.99
2019-01-23T08:43:06.783Z,72.99
2019-01-23T08:44:06.770Z,72.99
2019-01-23T08:45:06.762Z,72.78
2019-01-23T08:46:06.758Z,72.86
2019-01-23T08:47:06.753Z,72.75
2019-01-23T08:48:06.730Z,72.64
2019-01-23T08:49:06.723Z,72.64
2019-01-23T08:50:06.720Z,72.50
2019-01-23T08:51:06.696Z,72.64
2019-01-23T08:52:06.781Z,72.64
2019-01-23T08:53:06.674Z,72.19
2019-01-23T08:54:06.660Z,72.54
2019-01-23T08:55:07.013Z,72.08
2019-01-23T08:56:06.641Z,72.54
2019-01-23T08:57:06.643Z,71.98
2019-01-23T08:58:06.626Z,72.08
2019-01-23T08:59:06.613Z,72.19
2019-01-23T09:00:06.598Z,71.88
2019-01-23T09:01:06.584Z,72.30
2019-01-23T09:02:06.592Z,72.30
2019-01-23T09:03:06.559Z,72.19
2019-01-23T09:04:06.550Z,72.08
2019-01-23T09:05:06.539Z,72.08
2019-01-23T09:06:06.530Z,71.24
2019-01-23T09:07:06.545Z,71.24
2019-01-23T09:08:06.506Z,71.24
2019-01-23T09:09:06.494Z,70.93
2019-01-23T09:10:06.486Z,72.08
2019-01-23T09:11:06.476Z,72.08
2019-01-23T09:12:06.482Z,71.35
2019-01-23T09:13:06.457Z,71.98
2019-01-23T09:14:06.438Z,71.88
2019-01-23T09:15:06.444Z,71.77
2019-01-23T09:16:06.425Z,71.77
2019-01-23T09:17:06.430Z,72.08
2019-01-23T09:18:07.189Z,71.56
2019-01-23T09:19:06.442Z,71.35
2019-01-23T09:20:06.377Z,71.35
2019-01-23T09:21:06.371Z,71.35
2019-01-23T09:22:06.378Z,71.14
2019-01-23T09:23:06.345Z,71.35
2019-01-23T09:24:06.343Z,71.24
2019-01-23T09:25:06.320Z,71.73
2019-01-23T09:26:06.314Z,71.63
2019-01-23T09:27:06.314Z,71.53
2019-01-23T09:28:06.296Z,71.42
2019-01-23T09:29:06.282Z,71.63
2019-01-23T09:30:06.269Z,71.21
2019-01-23T09:31:06.261Z,71.11
2019-01-23T09:32:06.290Z,70.86
2019-01-23T09:33:06.247Z,70.55
2019-01-23T09:34:06.244Z,70.62
2019-01-23T09:35:06.211Z,70.94
2019-01-23T09:36:06.201Z,71.36
2019-01-23T09:37:06.259Z,70.83
2019-01-23T09:38:06.225Z,70.41
2019-01-23T09:39:06.173Z,70.73
2019-01-23T09:40:06.173Z,70.73
2019-01-23T09:41:06.154Z,69.78
2019-01-23T09:42:06.154Z,69.57
2019-01-23T09:43:06.136Z,69.01
2019-01-23T09:44:06.135Z,69.26
2019-01-23T09:45:06.102Z,69.26
2019-01-23T09:46:06.089Z,68.94
2019-01-23T09:47:06.077Z,68.84
2019-01-23T09:48:06.089Z,68.62
2019-01-23T09:49:06.073Z,69.36
2019-01-23T09:50:06.068Z,69.26
2019-01-23T09:51:06.040Z,69.26
2019-01-23T09:52:06.027Z,69.26
2019-01-23T09:53:06.038Z,68.73
2019-01-23T09:54:06.002Z,68.94
2019-01-23T09:55:06.011Z,68.94
2019-01-23T09:56:05.991Z,68.73
2019-01-23T09:57:05.980Z,68.62
2019-01-23T09:58:06.080Z,69.07
2019-01-23T09:59:05.999Z,68.97
2019-01-23T10:00:05.947Z,69.07
2019-01-23T10:01:06.558Z,68.65
2019-01-23T10:02:06.016Z,68.87
2019-01-23T10:03:05.946Z,68.65
2019-01-23T10:04:05.888Z,68.87
2019-01-23T10:05:05.881Z,68.76
2019-01-23T10:06:05.879Z,68.76
2019-01-23T10:07:05.865Z,69.39
2019-01-23T10:08:05.880Z,69.39
2019-01-23T10:09:05.845Z,68.94
2019-01-23T10:10:05.830Z,68.84
2019-01-23T10:11:05.817Z,68.73
2019-01-23T10:12:05.814Z,68.38
2019-01-23T10:13:05.801Z,68.49
2019-01-23T10:14:05.808Z,68.07
2019-01-23T10:15:05.792Z,68.07
2019-01-23T10:16:05.759Z,67.61
2019-01-23T10:17:05.752Z,68.04
2019-01-23T10:18:05.769Z,67.09
2019-01-23T10:19:05.741Z,67.41
2019-01-23T10:20:05.712Z,67.20
2019-01-23T10:21:05.732Z,67.17
2019-01-23T10:22:05.693Z,67.06
2019-01-23T10:23:05.680Z,66.75
2019-01-23T10:24:05.723Z,66.72
2019-01-23T10:25:05.672Z,66.01
2019-01-23T10:26:05.652Z,65.56
2019-01-23T10:27:05.644Z,65.28
2019-01-23T10:28:05.639Z,65.38
2019-01-23T10:29:05.636Z,65.25
2019-01-23T10:30:05.617Z,64.86
2019-01-23T10:31:06.694Z,64.96
2019-01-23T10:32:05.588Z,64.94
2019-01-23T10:33:05.578Z,65.28
2019-01-23T10:34:05.590Z,65.28
2019-01-23T10:35:05.556Z,64.96
2019-01-23T10:36:05.543Z,64.86
2019-01-23T10:37:05.532Z,64.96
2019-01-23T10:38:05.523Z,64.94
2019-01-23T10:39:05.523Z,65.07
2019-01-23T10:40:05.494Z,64.94
2019-01-23T10:41:05.489Z,65.07
2019-01-23T10:42:05.476Z,65.14
2019-01-23T10:43:05.469Z,65.88
2019-01-23T10:44:05.491Z,65.53
2019-01-23T10:45:05.449Z,65.74
2019-01-23T10:46:05.428Z,65.43
2019-01-23T10:47:05.436Z,65.01
2019-01-23T10:48:05.413Z,64.59
2019-01-23T10:49:06.198Z,64.28
2019-01-23T10:50:05.391Z,63.51
2019-01-23T10:51:05.374Z,64.06
2019-01-23T10:52:05.360Z,63.30
2019-01-23T10:53:05.350Z,63.43
2019-01-23T10:54:05.359Z,63.33
2019-01-23T10:55:05.342Z,63.65
2019-01-23T10:56:05.317Z,63.65
2019-01-23T10:57:05.312Z,64.28
2019-01-23T10:58:05.312Z,63.75
2019-01-23T10:59:05.307Z,64.41
2019-01-23T11:00:05.299Z,64.17
2019-01-23T11:01:05.275Z,64.62
2019-01-23T11:02:05.256Z,64.83
2019-01-23T11:03:09.972Z,64.51
2019-01-23T11:04:06.234Z,64.20
2019-01-23T11:05:05.246Z,64.28
2019-01-23T11:06:05.230Z,64.62
2019-01-23T11:07:05.205Z,63.67
2019-01-23T11:08:05.191Z,63.67
2019-01-23T11:09:05.174Z,63.39
2019-01-23T11:10:05.197Z,63.39
2019-01-23T11:11:05.158Z,64.12
2019-01-23T11:12:05.146Z,64.23
2019-01-23T11:13:05.135Z,64.33
2019-01-23T11:14:05.124Z,64.96
2019-01-23T11:15:05.140Z,64.65
2019-01-23T11:16:05.102Z,63.81
2019-01-23T11:17:05.091Z,64.12
2019-01-23T11:18:05.079Z,63.70
2019-01-23T11:19:05.069Z,63.49
2019-01-23T11:20:05.082Z,63.52
2019-01-23T11:21:05.040Z,64.04
2019-01-23T11:22:05.058Z,63.73
2019-01-23T11:23:05.018Z,63.84
2019-01-23T11:24:05.010Z,64.15
2019-01-23T11:25:05.019Z,64.26
2019-01-23T11:26:05.048Z,64.78
2019-01-23T11:27:04.986Z,64.15
2019-01-23T11:28:05.043Z,64.15
2019-01-23T11:29:05.036Z,64.36
2019-01-23T11:30:04.969Z,64.70
2019-01-23T11:31:04.936Z,64.81
2019-01-23T11:32:04.928Z,64.81
2019-01-23T11:33:04.967Z,64.81
2019-01-23T11:34:04.902Z,64.92
2019-01-23T11:35:04.899Z,65.02
2019-01-23T11:36:04.895Z,64.70
2019-01-23T11:37:04.870Z,64.50
2019-01-23T11:38:04.880Z,64.18
2019-01-23T11:39:04.842Z,64.39
2019-01-23T11:40:04.846Z,64.39
2019-01-23T11:41:04.846Z,64.63
2019-01-23T11:42:04.813Z,65.05
2019-01-23T11:43:04.825Z,65.05
2019-01-23T11:44:04.790Z,64.84
2019-01-23T11:45:04.778Z,65.26
2019-01-23T11:46:04.790Z,65.16
2019-01-23T11:47:04.763Z,65.05
2019-01-23T11:48:04.756Z,65.26
2019-01-23T11:49:04.770Z,66.20
2019-01-23T11:50:04.763Z,65.89
2019-01-23T11:51:04.734Z,65.58
2019-01-23T11:52:04.785Z,65.78
2019-01-23T11:53:04.695Z,65.78
2019-01-23T11:54:04.684Z,65.58
2019-01-23T11:55:04.685Z,66.20
2019-01-23T11:56:04.735Z,66.42
2019-01-23T11:57:04.647Z,66.10
2019-01-23T11:58:04.639Z,66.20
2019-01-23T11:59:04.637Z,65.58
2019-01-23T12:00:04.640Z,65.68
2019-01-23T12:01:04.637Z,65.58
2019-01-23T12:02:04.630Z,65.26
2019-01-23T12:03:04.586Z,65.47
2019-01-23T12:04:04.568Z,64.95
2019-01-23T12:05:04.562Z,64.31
2019-01-23T12:06:04.582Z,64.31
2019-01-23T12:07:04.540Z,64.42
2019-01-23T12:08:04.531Z,64.21
2019-01-23T12:09:04.516Z,64.53
2019-01-23T12:10:04.529Z,64.31
2019-01-23T12:11:04.609Z,63.90
2019-01-23T12:12:04.495Z,63.68
2019-01-23T12:13:04.486Z,63.79
2019-01-23T12:14:04.458Z,64.53
2019-01-23T12:15:04.452Z,64.24
2019-01-23T12:16:04.492Z,64.03
2019-01-23T12:17:04.434Z,64.34
2019-01-23T12:18:04.429Z,64.45
2019-01-23T12:19:04.429Z,64.45
2019-01-23T12:20:04.439Z,64.87
2019-01-23T12:21:04.425Z,65.08
2019-01-23T12:22:04.381Z,65.00
2019-01-23T12:23:04.366Z,65.11
2019-01-23T12:24:04.356Z,65.42
2019-01-23T12:25:04.347Z,65.22
2019-01-23T12:26:04.331Z,65.11
2019-01-23T12:27:04.335Z,64.69
2019-01-23T12:28:04.307Z,65.22
2019-01-23T12:29:04.301Z,65.11
2019-01-23T12:30:04.299Z,65.74
2019-01-23T12:31:04.281Z,65.22
2019-01-23T12:32:04.296Z,65.22
2019-01-23T12:33:04.278Z,65.95
2019-01-23T12:34:04.239Z,65.53
2019-01-23T12:35:04.231Z,65.64
2019-01-23T12:36:04.281Z,65.42
2019-01-23T12:37:04.232Z,65.84
2019-01-23T12:38:04.200Z,65.32
2019-01-23T12:39:04.207Z,65.42
2019-01-23T12:40:04.177Z,65.74
2019-01-23T12:41:04.172Z,65.53
2019-01-23T12:42:04.189Z,65.64
2019-01-23T12:43:04.207Z,66.09
2019-01-23T12:44:04.138Z,65.98
2019-01-23T12:45:04.135Z,65.45
2019-01-23T12:46:04.114Z,65.35
2019-01-23T12:47:04.134Z,64.93
2019-01-23T12:48:04.091Z,65.22
2019-01-23T12:49:04.092Z,65.25
2019-01-23T12:50:04.082Z,65.03
2019-01-23T12:51:04.053Z,65.11
2019-01-23T12:52:04.052Z,65.03